createdAt,value
2019-03-13T10:16:36.962Z,94872.83
2019-03-13T10:21:40.176Z,94891.30
2019-03-13T10:26:41.476Z,94847.77
2019-03-13T11:40:32.103Z,94826.63
2019-03-13T11:45:39.347Z,94831.39
2019-03-13T11:56:21.164Z,94805.27
2019-03-13T13:10:18.610Z,94745.64
2019-03-13T13:15:21.899Z,94746.42
2019-03-13T13:20:24.258Z,94706.89
2019-03-13T13:25:24.641Z,94703.62
2019-03-13T14:33:47.465Z,94731.50
2019-03-13T14:38:48.764Z,94736.67
2019-03-13T14:43:50.037Z,94725.52
2019-03-13T14:48:51.341Z,94716.86
2019-03-13T14:53:52.637Z,94733.06
2019-03-13T14:58:57.618Z,94712.38
2019-03-13T16:01:00.710Z,94711.37
2019-03-13T16:06:02.043Z,94715.67
2019-03-13T16:11:04.538Z,94721.87
2019-03-13T16:16:06.645Z,94710.97
2019-03-13T16:21:08.005Z,94703.34
2019-03-13T16:26:09.296Z,94738.08
2019-03-13T16:31:10.589Z,94709.06
2019-03-13T16:36:11.868Z,94710.61
2019-03-13T16:41:13.906Z,94721.35
2019-03-13T16:46:15.185Z,94708.27
2019-03-13T16:51:16.467Z,94717.78
2019-03-13T16:56:18.496Z,94716.59
2019-03-13T17:01:19.834Z,94731.59
2019-03-13T17:06:21.885Z,94743.41
2019-03-13T17:11:23.937Z,94739.46
2019-03-13T17:16:25.237Z,94732.05
2019-03-13T17:21:27.286Z,94754.80
2019-03-13T17:26:28.576Z,94741.53
2019-03-13T17:31:29.888Z,94729.08
2019-03-13T17:36:31.247Z,94718.54
2019-03-13T17:41:32.553Z,94715.28
2019-03-13T17:46:33.851Z,94709.80
2019-03-13T17:51:35.145Z,94711.87
2019-03-13T17:56:36.572Z,94709.77
2019-03-13T18:01:43.625Z,94692.41
2019-03-13T18:06:46.298Z,94710.20
2019-03-13T18:11:47.638Z,94703.95
2019-03-13T18:16:48.970Z,94715.56
2019-03-13T18:21:50.291Z,94709.14
2019-03-13T18:26:54.781Z,94738.02
2019-03-13T18:32:06.496Z,94710.14
2019-03-13T18:37:08.830Z,94716.47
2019-03-13T18:42:10.124Z,94724.19
2019-03-13T18:47:11.952Z,94716.15
2019-03-13T18:52:13.879Z,94716.86
2019-03-13T18:57:19.401Z,94722.67
2019-03-13T19:02:21.616Z,94722.80
2019-03-13T19:07:28.453Z,94719.72
2019-03-13T19:12:30.653Z,94721.50
2019-03-13T19:17:33.750Z,94734.27
2019-03-13T19:22:35.946Z,94718.50
2019-03-13T19:27:38.155Z,94711.66
2019-03-13T19:32:47.448Z,94725.53
2019-03-13T19:37:56.931Z,94721.80
2019-03-13T19:42:59.688Z,94729.31
2019-03-13T19:48:09.400Z,94721.46
2019-03-13T19:53:13.648Z,94724.58
2019-03-13T19:58:16.371Z,94720.45
2019-03-13T20:03:19.707Z,94707.16
2019-03-13T20:08:22.227Z,94727.86
2019-03-13T20:13:28.372Z,94734.77
2019-03-13T20:18:33.032Z,94736.83
2019-03-13T20:23:43.557Z,94730.09
2019-03-13T20:29:01.745Z,94729.73
2019-03-13T20:34:07.301Z,94720.57
2019-03-13T20:39:15.223Z,94738.79
2019-03-13T20:44:21.494Z,94740.39
2019-03-13T20:49:30.129Z,94729.50
2019-03-13T20:54:35.093Z,94779.63
2019-03-13T20:59:37.215Z,94763.27
2019-03-13T21:04:41.478Z,94727.66
2019-03-13T21:09:44.388Z,94736.59
2019-03-13T21:15:01.586Z,94738.16
2019-03-13T21:20:16.811Z,94765.14
2019-03-13T21:25:23.509Z,94757.56
2019-03-13T21:30:30.371Z,94744.04
2019-03-13T21:35:34.642Z,94761.71
2019-03-13T21:40:40.809Z,94735.23
2019-03-13T21:45:45.799Z,94789.41
2019-03-13T21:50:52.255Z,94740.51
2019-03-13T21:56:08.492Z,94749.06
2019-03-13T22:01:19.289Z,94777.53
2019-03-13T22:06:28.686Z,94735.19
2019-03-13T22:11:26.810Z,94776.79
2019-03-13T22:16:29.719Z,94721.05
2019-03-13T22:21:31.053Z,94756.63
2019-03-13T22:26:51.741Z,94736.78
2019-03-13T22:31:53.044Z,94748.95
2019-03-13T22:36:55.089Z,94739.53
2019-03-13T22:41:56.674Z,94735.02
2019-03-13T22:46:57.831Z,94717.87
2019-03-13T22:51:59.879Z,94716.38
2019-03-13T22:57:01.203Z,94747.95
2019-03-13T23:33:42.486Z,94758.80
2019-03-13T23:38:43.908Z,94755.66
2019-03-13T23:43:45.941Z,94744.98
2019-03-13T23:48:47.228Z,94733.77
2019-03-13T23:53:48.505Z,94763.34
2019-03-13T23:58:50.610Z,94768.69
